This is the latest recevied weather packets stored in our database for station/object LKCS. If no packets are shown the sender has not sent any weather packets the latest 10 day(s).
| Time | Temp. | Humidity | Pressure | Rain* | Wind** | Luminosity | Snow |
|---|---|---|---|---|---|---|---|
| 1787641393 | 16.11° C | 67% | 1013 hPa | - | - | - | - |
| 1787639584 | 15° C | 72% | 1013 hPa | - | - | - | - |
| 1787637793 | 15° C | 72% | 1013 hPa | - | - | - | - |
| 1787635983 | 12.78° C | 82% | 1014 hPa | - | - | - | - |
| 1787634194 | 12.78° C | 76% | 1014 hPa | - | - | - | - |
| 1787632385 | 12.78° C | 76% | 1014 hPa | - | - | - | - |
| 1787630585 | 12.22° C | 87% | 1013 hPa | - | - | - | - |
| 1787628751 | 12.78° C | 82% | 1014 hPa | - | - | - | - |
| 1787626959 | 12.78° C | 87% | 1014 hPa | - | - | - | - |
| 1787625150 | 13.89° C | 76% | 1015 hPa | - | - | - | - |
| 1787623386 | 13.89° C | 76% | 1015 hPa | - | - | - | - |
| 1787621585 | 15° C | 62% | 1015 hPa | - | - | - | - |
| 1787619762 | 16.11° C | 55% | 1016 hPa | - | - | - | - |
| 1787617985 | 16.11° C | 55% | 1016 hPa | - | - | - | - |
| 1787616186 | 16.11° C | 55% | 1016 hPa | - | - | - | - |
| 1787614385 | 16.11° C | 55% | 1017 hPa | - | - | - | - |
| 1787612585 | 13.89° C | 67% | 1017 hPa | - | - | - | - |
| 1787610785 | 16.11° C | 59% | 1017 hPa | - | - | - | - |
| 1787608994 | 16.11° C | 59% | 1018 hPa | - | - | - | - |
| 1787607184 | 17.22° C | 55% | 1018 hPa | - | - | - | - |
| 1787605360 | 17.22° C | 55% | 1018 hPa | - | - | - | - |
| 1787603585 | 17.22° C | 55% | 1018 hPa | - | - | - | - |
| 1787601759 | 17.22° C | 55% | 1018 hPa | - | - | - | - |
| 1787599950 | 17.78° C | 52% | 1018 hPa | - | - | - | - |
| 1787598187 | 18.89° C | 45% | 1018 hPa | - | - | - | - |
* Rain since midnight (hover to see other rain measurements)
** Current wind speed in m/s (hover to see current wind gust speed)